Time;durP1;ratioP1;P1;durP2;ratioP2;P2;SDS_P1;SDS_P2;PMS_P1;PMS_P2;Temp;Humidity;BMP_temperature;BMP_pressure;BME280_temperature;BME280_humidity;BME280_pressure;Samples;Min_cycle;Max_cycle;Signal;HPM_P1;HPM_P2
2021/12/31 00:01:30;;;;;;;7.45;4.15;;;;;;;19.69;55.38;97093.75;12609715;23;20018;-50
2021/12/31 00:06:50;;;;;;;8.27;4.32;;;;;;;19.67;55.48;97102.19;12610011;23;20362;-50
2021/12/31 00:12:10;;;;;;;6.95;4.05;;;;;;;19.67;55.22;97110.28;12629309;23;20022;-49
2021/12/31 00:17:30;;;;;;;8.68;4.25;;;;;;;19.66;55.27;97108.72;12629258;23;20014;-50
2021/12/31 00:23:03;;;;;;;6.60;4.03;;;;;;;19.66;55.22;97110.59;12609703;23;20025;-51
2021/12/31 00:28:22;;;;;;;6.72;3.90;;;;;;;19.64;55.30;97102.00;12609149;23;20022;-50
2021/12/31 00:33:42;;;;;;;7.25;3.70;;;;;;;19.63;55.19;97112.03;12609554;23;20529;-51
2021/12/31 00:39:01;;;;;;;6.97;3.92;;;;;;;19.63;55.25;97112.03;12609626;23;20025;-50
2021/12/31 00:44:20;;;;;;;6.15;3.63;;;;;;;19.62;55.08;97106.94;12609411;23;20316;-49
2021/12/31 00:49:40;;;;;;;6.43;3.65;;;;;;;19.62;55.24;97121.28;12629113;23;20020;-50
2021/12/31 00:54:59;;;;;;;7.78;3.75;;;;;;;19.60;55.08;97114.56;12608712;23;20082;-51
2021/12/31 01:00:19;;;;;;;6.95;3.75;;;;;;;19.59;55.09;97121.09;12609110;23;20048;-49
2021/12/31 01:05:38;;;;;;;4.90;3.00;;;;;;;19.59;55.17;97110.28;12609295;23;20015;-50
2021/12/31 01:10:58;;;;;;;5.50;3.42;;;;;;;19.56;55.10;97117.94;12628865;23;20081;-50
2021/12/31 01:16:19;;;;;;;5.03;3.40;;;;;;;19.55;54.99;97116.31;12628841;23;20076;-52
2021/12/31 01:21:39;;;;;;;6.10;3.38;;;;;;;19.55;54.82;97124.44;12609281;23;20037;-49
2021/12/31 01:26:58;;;;;;;4.88;3.45;;;;;;;19.54;54.88;97124.75;12608725;23;20029;-50
2021/12/31 01:32:17;;;;;;;6.82;3.50;;;;;;;19.53;55.02;97123.16;12609200;23;20470;-52
2021/12/31 01:37:37;;;;;;;6.70;3.60;;;;;;;19.52;55.00;97133.19;12608371;23;20030;-50
2021/12/31 01:42:56;;;;;;;5.03;3.28;;;;;;;19.52;54.77;97140.47;12609243;23;20022;-50
2021/12/31 01:48:35;;;;;;;6.57;3.03;;;;;;;19.50;54.86;97135.41;12609280;23;20025;-52
2021/12/31 01:53:55;;;;;;;;;;;;;;;19.49;55.20;97130.31;12632862;23;20018;-50
2021/12/31 01:59:15;;;;;;;4.68;2.95;;;;;;;19.49;54.67;97127.59;12632954;23;19917;-51
2021/12/31 02:04:37;;;;;;;4.68;2.88;;;;;;;19.47;54.73;97119.81;12610661;23;20025;-50
2021/12/31 02:09:57;;;;;;;6.45;3.15;;;;;;;19.47;54.67;97127.13;12632247;23;20347;-51
2021/12/31 02:15:18;;;;;;;4.45;2.90;;;;;;;19.45;54.67;97119.34;12611833;23;20023;-51
2021/12/31 02:20:43;;;;;;;3.88;2.67;;;;;;;19.43;54.65;97126.97;12610457;23;20018;-50
2021/12/31 02:26:03;;;;;;;5.57;2.92;;;;;;;19.41;54.55;97126.47;12631770;23;20077;-50
2021/12/31 02:31:22;;;;;;;4.03;2.63;;;;;;;19.42;54.57;97121.88;12612167;23;20019;-50
2021/12/31 02:36:41;;;;;;;4.00;2.83;;;;;;;19.40;54.77;97114.06;12611898;23;20343;-51
2021/12/31 02:42:01;;;;;;;3.80;2.40;;;;;;;19.39;54.60;97117.91;12611836;23;20543;-49
2021/12/31 02:47:20;;;;;;;3.65;2.40;;;;;;;19.39;54.53;97117.91;12611950;23;20026;-51
2021/12/31 02:52:40;;;;;;;5.53;2.67;;;;;;;19.38;54.81;97120.91;12631416;23;20447;-51
2021/12/31 02:58:00;;;;;;;4.07;2.63;;;;;;;19.37;54.42;97114.72;12611983;23;20352;-50
2021/12/31 03:03:20;;;;;;;4.35;2.60;;;;;;;19.36;54.64;97113.09;12611190;23;20014;-50
2021/12/31 03:08:43;;;;;;;4.95;2.58;;;;;;;19.34;54.68;97107.22;12590093;23;20402;-51
2021/12/31 03:14:04;;;;;;;5.30;2.60;;;;;;;19.34;54.45;97115.34;12610961;23;20034;-50
2021/12/31 03:19:24;;;;;;;3.55;2.38;;;;;;;19.33;54.69;97111.06;12611434;23;20019;-50
2021/12/31 03:24:43;;;;;;;4.45;2.70;;;;;;;19.33;54.27;97111.84;12610398;23;20018;-50
2021/12/31 03:30:04;;;;;;;3.15;2.38;;;;;;;19.31;54.38;97115.97;12611180;23;20446;-50
2021/12/31 03:35:24;;;;;;;3.55;2.40;;;;;;;19.29;54.54;97124.38;12611039;23;20015;-50
2021/12/31 03:40:46;;;;;;;3.03;2.35;;;;;;;19.29;54.36;97112.78;12630632;23;20366;-50
2021/12/31 03:46:07;;;;;;;2.90;2.28;;;;;;;19.28;54.54;97130.09;12610690;23;20345;-49
2021/12/31 03:51:26;;;;;;;3.92;2.50;;;;;;;19.27;54.37;97142.03;12629991;23;20026;-49
2021/12/31 03:56:47;;;;;;;4.60;2.58;;;;;;;19.27;54.29;97139.31;12610797;23;20081;-50
2021/12/31 04:02:07;;;;;;;3.88;2.15;;;;;;;19.25;54.42;97142.34;12610528;23;20428;-51
2021/12/31 04:07:26;;;;;;;3.58;2.30;;;;;;;19.24;54.33;97137.25;12610505;23;20072;-49
2021/12/31 04:12:46;;;;;;;3.30;2.00;;;;;;;19.24;54.47;97151.53;12629168;23;20018;-52
2021/12/31 04:18:05;;;;;;;3.28;2.20;;;;;;;19.23;54.47;97135.63;12609298;23;20454;-50
2021/12/31 04:23:28;;;;;;;3.28;2.35;;;;;;;19.21;54.34;97130.56;12609190;23;20022;-50
2021/12/31 04:28:47;;;;;;;2.92;2.13;;;;;;;19.21;54.33;97135.97;12609890;23;20355;-50
2021/12/31 04:34:08;;;;;;;4.20;2.20;;;;;;;19.21;54.36;97127.06;12609857;23;20575;-50
2021/12/31 04:39:28;;;;;;;2.60;2.10;;;;;;;19.19;54.23;97138.19;12609922;23;20629;-49
2021/12/31 04:44:48;;;;;;;1.95;1.60;;;;;;;19.17;54.28;97141.19;12609357;23;20089;-49
2021/12/31 04:50:08;;;;;;;3.20;2.17;;;;;;;19.17;54.17;97133.09;12608944;23;20053;-50
2021/12/31 04:55:27;;;;;;;2.90;2.17;;;;;;;19.15;54.19;97127.22;12629058;23;20077;-50
2021/12/31 05:00:47;;;;;;;2.35;1.95;;;;;;;19.16;54.28;97136.09;12609719;23;20546;-50
2021/12/31 05:06:06;;;;;;;2.33;1.92;;;;;;;19.14;54.03;97141.03;12609573;23;20018;-50
2021/12/31 05:11:25;;;;;;;3.40;2.30;;;;;;;19.13;54.04;97145.63;12609589;23;20098;-49
2021/12/31 05:16:45;;;;;;;3.03;2.00;;;;;;;19.12;54.07;97141.31;12608810;23;20023;-50
2021/12/31 05:22:04;;;;;;;3.10;2.00;;;;;;;19.12;54.10;97145.94;12608815;23;20485;-50
2021/12/31 05:27:23;;;;;;;2.33;1.60;;;;;;;19.12;54.18;97152.13;12612275;23;20030;-51
2021/12/31 05:32:42;;;;;;;2.17;1.73;;;;;;;19.12;54.05;97164.84;12612066;23;20024;-50
2021/12/31 05:38:02;;;;;;;2.28;1.70;;;;;;;19.13;54.15;97169.13;12612791;23;20187;-50
2021/12/31 05:43:21;;;;;;;2.47;1.65;;;;;;;19.13;54.03;97169.94;12631741;23;20034;-50
2021/12/31 05:48:40;;;;;;;2.35;1.77;;;;;;;19.16;53.95;97168.50;12612373;23;20462;-49
2021/12/31 05:54:00;;;;;;;2.35;1.80;;;;;;;19.17;54.14;97168.22;12611583;23;20018;-50
2021/12/31 05:59:19;;;;;;;2.65;2.17;;;;;;;19.19;54.29;97173.31;12631455;23;20018;-49
2021/12/31 06:04:39;;;;;;;2.10;1.58;;;;;;;19.22;54.46;97190.78;12611369;23;20498;-50
2021/12/31 06:09:58;;;;;;;2.55;1.50;;;;;;;19.23;54.52;97184.25;12611276;23;20018;-49
2021/12/31 06:15:19;;;;;;;2.65;1.95;;;;;;;19.25;54.86;97188.25;12611626;23;20476;-49
2021/12/31 06:20:42;;;;;;;3.20;1.75;;;;;;;19.30;55.03;97187.31;12612039;23;20498;-49
2021/12/31 06:26:02;;;;;;;2.55;1.80;;;;;;;19.33;55.13;97189.41;12612046;23;20507;-50
2021/12/31 06:31:22;;;;;;;2.42;1.60;;;;;;;19.35;55.05;97192.59;12631475;23;20080;-49
2021/12/31 06:36:41;;;;;;;1.58;1.42;;;;;;;19.38;55.31;97200.03;12611501;23;20042;-52
2021/12/31 06:42:03;;;;;;;2.10;1.63;;;;;;;19.42;55.32;97202.91;12630913;23;20018;-49
2021/12/31 06:47:23;;;;;;;2.75;1.60;;;;;;;19.43;55.28;97199.13;12611260;23;20031;-49
2021/12/31 06:52:43;;;;;;;6.57;1.70;;;;;;;19.46;55.32;97206.59;12610491;23;20048;-49
2021/12/31 06:58:03;;;;;;;3.45;1.63;;;;;;;19.46;55.40;97204.66;12630353;23;20493;-49
2021/12/31 07:03:22;;;;;;;3.05;1.48;;;;;;;19.48;55.27;97218.69;12630623;23;20094;-52
2021/12/31 07:08:41;;;;;;;3.10;1.60;;;;;;;19.48;55.27;97224.09;12611134;23;20064;-49
2021/12/31 07:14:01;;;;;;;4.30;1.20;;;;;;;19.47;53.37;97217.09;12629611;23;20096;-51
2021/12/31 07:19:20;;;;;;;5.45;1.05;;;;;;;19.46;52.13;97226.28;12631088;23;20435;-50
2021/12/31 07:24:39;;;;;;;4.00;1.33;;;;;;;19.44;51.87;97223.09;12610798;23;20019;-49
2021/12/31 07:29:59;;;;;;;3.25;1.30;;;;;;;19.40;49.98;97226.75;12610380;23;20042;-50
2021/12/31 07:35:20;;;;;;;6.68;1.67;;;;;;;19.33;49.27;97232.63;12609439;23;20051;-50
2021/12/31 07:40:41;;;;;;;3.22;1.80;;;;;;;19.34;50.36;97240.38;12600855;23;20410;-49
2021/12/31 07:46:01;;;;;;;5.22;1.85;;;;;;;19.38;50.69;97242.47;12623127;23;20092;-50
2021/12/31 07:51:20;;;;;;;6.10;1.88;;;;;;;19.41;50.71;97252.69;12604970;23;20018;-50
2021/12/31 07:56:40;;;;;;;4.45;1.45;;;;;;;19.42;50.65;97246.16;12602129;23;20037;-50
2021/12/31 08:01:59;;;;;;;4.65;1.50;;;;;;;19.42;50.62;97254.25;12603579;23;20018;-50
2021/12/31 08:07:19;;;;;;;3.85;1.50;;;;;;;19.42;50.32;97257.75;12608542;23;20023;-50
2021/12/31 08:12:38;;;;;;;3.22;1.40;;;;;;;19.42;50.38;97265.06;12610498;23;20014;-50
2021/12/31 08:17:58;;;;;;;3.55;1.30;;;;;;;19.42;50.18;97262.34;12609350;23;20026;-49
2021/12/31 08:23:18;;;;;;;3.58;1.30;;;;;;;19.43;50.07;97263.97;12609515;23;20022;-49
2021/12/31 08:28:37;;;;;;;2.88;1.15;;;;;;;19.42;49.82;97255.03;12609054;23;20025;-49
2021/12/31 08:33:57;;;;;;;2.25;1.10;;;;;;;19.41;49.71;97261.56;12609145;23;20020;-50
2021/12/31 08:39:16;;;;;;;1.65;0.95;;;;;;;19.41;49.71;97266.97;12629769;23;20485;-53
2021/12/31 08:44:36;;;;;;;1.48;1.20;;;;;;;19.40;49.70;97265.38;12608597;23;20085;-50
2021/12/31 08:49:56;;;;;;;1.50;1.17;;;;;;;19.41;49.36;97266.19;12628165;23;20040;-49
2021/12/31 08:55:17;;;;;;;0.90;0.80;;;;;;;19.38;49.41;97256.78;12627693;23;20458;-49
2021/12/31 09:00:37;;;;;;;2.75;1.02;;;;;;;19.38;49.19;97256.78;12627634;23;20026;-51
2021/12/31 09:05:57;;;;;;;1.35;1.00;;;;;;;19.37;49.29;97257.91;12582548;23;20046;-50
2021/12/31 09:11:17;;;;;;;1.77;1.20;;;;;;;19.36;49.17;97256.28;12607830;23;20029;-51
2021/12/31 09:16:36;;;;;;;1.52;1.00;;;;;;;19.34;48.46;97259.31;12605480;23;20113;-50
2021/12/31 09:21:57;;;;;;;1.05;0.90;;;;;;;19.34;48.64;97259.31;12626463;23;20022;-49
2021/12/31 09:27:17;;;;;;;1.25;0.85;;;;;;;19.34;48.20;97258.50;12626647;23;20018;-53
2021/12/31 09:32:36;;;;;;;1.00;0.90;;;;;;;19.33;48.65;97256.94;12584790;23;20073;-49
2021/12/31 09:37:56;;;;;;;0.85;0.85;;;;;;;19.31;48.65;97268.03;12608100;23;20028;-50
2021/12/31 09:43:16;;;;;;;0.80;0.70;;;;;;;19.30;48.63;97263.72;12608550;23;20018;-49
2021/12/31 09:48:35;;;;;;;1.33;1.00;;;;;;;19.30;48.74;97271.03;12609403;23;20022;-50
2021/12/31 09:53:58;;;;;;;1.02;0.80;;;;;;;19.28;48.80;97268.66;12609214;23;20141;-50
2021/12/31 09:59:18;;;;;;;0.77;0.77;;;;;;;19.28;48.94;97262.47;12609602;23;20378;-50
2021/12/31 10:04:55;;;;;;;0.80;0.80;;;;;;;19.27;48.95;97258.19;12609234;23;20018;-51
2021/12/31 10:10:15;;;;;;;0.73;0.70;;;;;;;19.26;49.17;97248.47;12609575;23;20473;-50
2021/12/31 10:15:40;;;;;;;1.45;0.80;;;;;;;19.25;49.32;97257.66;12632408;23;20072;-52
2021/12/31 10:21:01;;;;;;;1.48;0.82;;;;;;;-146.19;100.00;65364.44;12632542;23;20019;-50
2021/12/31 10:26:20;;;;;;;1.65;0.80;;;;;;;-146.19;100.00;65364.44;12612748;23;20418;-49
2021/12/31 10:31:48;;;;;;;0.90;0.77;;;;;;;-146.19;100.00;65364.44;12611995;23;20014;-50
2021/12/31 10:37:18;;;;;;;0.73;0.70;;;;;;;-146.19;100.00;65364.44;12612604;23;20025;-51
2021/12/31 10:42:38;;;;;;;1.65;0.90;;;;;;;-146.19;100.00;65364.44;12631894;23;20019;-53
2021/12/31 10:48:08;;;;;;;1.70;0.80;;;;;;;-146.19;100.00;65364.44;12611540;23;20025;-52
2021/12/31 10:53:34;;;;;;;0.93;0.63;;;;;;;-146.19;100.00;65364.44;12612205;23;20015;-50
2021/12/31 10:58:57;;;;;;;0.63;0.63;;;;;;;-146.19;100.00;65364.44;12612391;23;20028;-50
2021/12/31 11:04:20;;;;;;;0.80;0.80;;;;;;;-146.19;100.00;65364.44;12631321;23;20019;-49
2021/12/31 11:09:42;;;;;;;0.93;0.82;;;;;;;-146.19;100.00;65364.44;12631564;23;20117;-50
2021/12/31 11:15:03;;;;;;;1.83;0.70;;;;;;;-146.19;100.00;65364.44;12611135;23;20350;-51
2021/12/31 11:20:24;;;;;;;1.17;1.08;;;;;;;-146.19;100.00;65364.44;12611716;23;20022;-50
2021/12/31 11:25:52;;;;;;;1.17;0.70;;;;;;;-146.19;100.00;65364.44;12610397;23;20049;-49
2021/12/31 11:31:18;;;;;;;0.70;0.70;;;;;;;-146.19;100.00;65364.44;12611323;23;20556;-51
2021/12/31 11:36:52;;;;;;;0.68;0.63;;;;;;;-146.19;100.00;65364.44;12610347;23;20018;-52
2021/12/31 11:42:11;;;;;;;0.70;0.70;;;;;;;-146.19;100.00;65364.44;12630644;23;20046;-49
2021/12/31 11:47:33;;;;;;;0.80;0.63;;;;;;;-146.19;100.00;65364.44;12630608;23;20024;-50
2021/12/31 11:53:01;;;;;;;0.77;0.60;;;;;;;-146.19;100.00;65364.44;12609111;23;20073;-49
2021/12/31 11:58:40;;;;;;;0.60;0.60;;;;;;;-146.19;100.00;65364.44;12610835;23;20085;-49
2021/12/31 12:04:20;;;;;;;0.75;0.75;;;;;;;-146.19;100.00;65364.44;12630288;23;20018;-50
2021/12/31 12:09:42;;;;;;;0.80;0.80;;;;;;;-146.19;100.00;65364.44;12610598;23;20025;-49
2021/12/31 12:15:14;;;;;;;0.57;0.55;;;;;;;-146.19;100.00;65364.44;12610110;23;20343;-50
2021/12/31 12:20:36;;;;;;;0.90;0.77;;;;;;;-146.19;100.00;65364.44;12610590;23;20022;-52
2021/12/31 12:25:55;;;;;;;0.75;0.68;;;;;;;-146.19;100.00;65364.44;12610216;23;20065;-50
2021/12/31 12:31:17;;;;;;;0.70;0.70;;;;;;;-146.19;100.00;65364.44;12629747;23;20025;-49
2021/12/31 12:36:37;;;;;;;0.70;0.70;;;;;;;-146.19;100.00;65364.44;12609203;23;20019;-51
2021/12/31 12:41:56;;;;;;;0.50;0.50;;;;;;;-146.19;100.00;65364.44;12629716;23;20453;-49
2021/12/31 12:47:21;;;;;;;0.60;0.60;;;;;;;-146.19;100.00;65364.44;12629455;23;20019;-53
2021/12/31 12:52:40;;;;;;;0.50;0.50;;;;;;;-146.19;100.00;65364.44;12609754;23;20020;-50
2021/12/31 12:58:01;;;;;;;0.60;0.60;;;;;;;-146.19;100.00;65364.44;12609921;23;20023;-50
2021/12/31 13:03:22;;;;;;;0.73;0.73;;;;;;;-146.19;100.00;65364.44;12609538;23;20025;-50
2021/12/31 13:08:42;;;;;;;0.70;0.70;;;;;;;-146.19;100.00;65364.44;12609690;23;20034;-49
2021/12/31 13:14:03;;;;;;;0.60;0.60;;;;;;;-146.19;100.00;65364.44;12609225;23;20081;-51
2021/12/31 13:19:34;;;;;;;0.73;0.70;;;;;;;-146.19;100.00;65364.44;12587897;23;20080;-51
2021/12/31 13:24:54;;;;;;;0.50;0.50;;;;;;;-146.19;100.00;65364.44;12609404;23;20026;-50
2021/12/31 13:30:13;;;;;;;0.60;0.60;;;;;;;-146.19;100.00;65364.44;12629257;23;20026;-50
2021/12/31 13:35:33;;;;;;;0.82;0.60;;;;;;;-146.19;100.00;65364.44;12629226;23;20053;-53
2021/12/31 13:40:54;;;;;;;0.55;0.55;;;;;;;-146.19;100.00;65364.44;12609335;23;20351;-50
2021/12/31 13:46:13;;;;;;;0.50;0.50;;;;;;;-146.19;100.00;65364.44;12611307;23;20033;-50
2021/12/31 13:51:35;;;;;;;0.80;0.75;;;;;;;-146.19;100.00;65364.44;12613311;23;20477;-50
2021/12/31 13:56:54;;;;;;;0.63;0.63;;;;;;;-146.19;100.00;65364.44;12613133;23;20018;-50
2021/12/31 14:02:22;;;;;;;0.60;0.60;;;;;;;-146.19;100.00;65364.44;12632699;23;20026;-52
2021/12/31 14:07:47;;;;;;;0.60;0.60;;;;;;;-146.19;100.00;65364.44;12613201;23;20019;-50
2021/12/31 14:13:08;;;;;;;0.57;0.57;;;;;;;-146.19;100.00;65364.44;12631538;23;20018;-49
2021/12/31 14:18:27;;;;;;;0.60;0.60;;;;;;;-146.19;100.00;65364.44;12591405;23;20018;-53
2021/12/31 14:23:48;;;;;;;0.55;0.52;;;;;;;-146.19;100.00;65364.44;12612892;23;20018;-50
2021/12/31 14:29:08;;;;;;;0.70;0.70;;;;;;;-146.19;100.00;65364.44;12632151;23;20081;-49
2021/12/31 14:34:29;;;;;;;0.60;0.60;;;;;;;-146.19;100.00;65364.44;12612474;23;20014;-51
2021/12/31 14:39:58;;;;;;;0.55;0.55;;;;;;;-146.19;100.00;65364.44;12610478;23;20686;-49
2021/12/31 14:45:18;;;;;;;0.52;0.52;;;;;;;-146.19;100.00;65364.44;12631760;23;20018;-50
2021/12/31 14:50:38;;;;;;;0.40;0.40;;;;;;;-146.19;100.00;65364.44;12612044;23;20019;-51
2021/12/31 14:55:57;;;;;;;0.50;0.50;;;;;;;-146.19;100.00;65364.44;12612055;23;20014;-50
2021/12/31 15:01:16;;;;;;;0.85;0.50;;;;;;;-146.19;100.00;65364.44;12609546;23;20015;-50
2021/12/31 15:06:36;;;;;;;0.50;0.50;;;;;;;-146.19;100.00;65364.44;12611820;23;20018;-50
2021/12/31 15:11:56;;;;;;;0.43;0.43;;;;;;;-146.19;100.00;65364.44;12611926;23;20018;-49
2021/12/31 15:17:16;;;;;;;0.52;0.52;;;;;;;19.25;49.32;97257.66;12610685;23;20537;-50
2021/12/31 15:22:35;;;;;;;0.50;0.50;;;;;;;18.85;50.71;97017.38;12611516;23;20019;-50
2021/12/31 15:27:55;;;;;;;0.43;0.43;;;;;;;18.86;50.63;97014.38;12611442;23;20025;-50
2021/12/31 15:33:15;;;;;;;0.60;0.60;;;;;;;18.87;50.81;97004.34;12611118;23;20624;-49
2021/12/31 15:38:35;;;;;;;0.63;0.50;;;;;;;-146.19;100.00;65364.44;12611165;23;20022;-49
2021/12/31 15:43:55;;;;;;;0.40;0.40;;;;;;;18.87;50.81;97004.34;12611013;23;20042;-50
2021/12/31 15:49:15;;;;;;;0.38;0.38;;;;;;;18.89;50.70;96994.81;12610744;23;20354;-49
2021/12/31 15:54:34;;;;;;;0.50;0.50;;;;;;;18.92;50.56;96996.91;12610715;23;20019;-51
2021/12/31 15:59:53;;;;;;;1.30;0.50;;;;;;;18.92;50.67;96988.81;12610747;23;20037;-49
2021/12/31 16:05:15;;;;;;;0.47;0.47;;;;;;;18.94;50.46;96988.50;12610479;23;20088;-49
2021/12/31 16:10:35;;;;;;;0.60;0.60;;;;;;;18.96;50.51;96987.06;12610053;23;20347;-49
2021/12/31 16:15:55;;;;;;;0.50;0.50;;;;;;;18.99;50.54;96987.53;12609974;23;20026;-50
2021/12/31 16:21:14;;;;;;;0.40;0.40;;;;;;;19.02;50.43;96978.84;12610077;23;20044;-49
2021/12/31 16:26:34;;;;;;;0.50;0.50;;;;;;;19.03;50.31;96954.19;12609536;23;20026;-50
2021/12/31 16:31:53;;;;;;;0.47;0.47;;;;;;;19.06;50.60;96968.97;12610344;23;20028;-49
2021/12/31 16:37:13;;;;;;;0.50;0.50;;;;;;;19.08;50.33;96989.16;12609995;23;20346;-50
2021/12/31 16:42:33;;;;;;;0.50;0.50;;;;;;;19.11;50.39;96987.72;12629246;23;20014;-49
2021/12/31 16:47:54;;;;;;;0.50;0.50;;;;;;;19.13;50.28;96970.09;12625451;23;20018;-50
2021/12/31 16:53:13;;;;;;;0.63;0.60;;;;;;;19.17;50.24;96989.16;12584615;23;20014;-49
2021/12/31 16:58:33;;;;;;;0.47;0.47;;;;;;;19.20;50.32;96995.84;12606073;23;20019;-50
2021/12/31 17:03:53;;;;;;;0.40;0.40;;;;;;;19.23;50.21;97001.41;12609554;23;20025;-49
2021/12/31 17:09:14;;;;;;;0.45;0.45;;;;;;;19.26;50.09;96989.16;12609692;23;20077;-49
2021/12/31 17:14:33;;;;;;;0.40;0.40;;;;;;;19.28;50.03;97011.25;12629080;23;20019;-51
2021/12/31 17:19:53;;;;;;;0.50;0.40;;;;;;;19.30;50.02;97001.72;12630056;23;20019;-52
2021/12/31 17:25:12;;;;;;;0.65;0.65;;;;;;;19.34;50.02;97009.97;12613757;23;20371;-50
2021/12/31 17:30:32;;;;;;;0.75;0.60;;;;;;;19.36;49.99;97029.38;12613770;23;20041;-49
2021/12/31 17:35:52;;;;;;;0.57;0.57;;;;;;;19.39;49.97;97023.34;12613389;23;20342;-50
2021/12/31 17:41:11;;;;;;;0.40;0.40;;;;;;;19.43;49.92;97043.19;12612710;23;20109;-51
2021/12/31 17:46:32;;;;;;;0.70;0.60;;;;;;;19.45;49.79;97051.78;12613164;23;20019;-49
2021/12/31 17:51:51;;;;;;;0.50;0.50;;;;;;;19.48;49.93;97045.75;12591585;23;20426;-49
2021/12/31 17:57:11;;;;;;;0.55;0.55;;;;;;;19.51;49.88;97055.91;12613070;23;20327;-51
2021/12/31 18:02:30;;;;;;;0.40;0.40;;;;;;;19.54;49.80;97040.97;12632440;23;20447;-50
2021/12/31 18:07:49;;;;;;;0.60;0.50;;;;;;;19.56;49.83;97042.25;12632183;23;20021;-50
2021/12/31 18:13:09;;;;;;;0.55;0.55;;;;;;;19.60;49.70;97033.50;12632061;23;20079;-53
2021/12/31 18:18:28;;;;;;;0.50;0.50;;;;;;;19.63;49.59;97054.50;12632201;23;20014;-51
2021/12/31 18:23:48;;;;;;;0.60;0.60;;;;;;;19.66;49.65;97059.25;12632124;23;20435;-52
2021/12/31 18:29:07;;;;;;;0.50;0.50;;;;;;;19.69;49.62;97051.31;12632024;23;20038;-49
2021/12/31 18:34:27;;;;;;;0.50;0.50;;;;;;;19.71;49.62;97061.81;12611832;23;20019;-49
2021/12/31 18:39:46;;;;;;;0.60;0.60;;;;;;;19.73;49.47;97054.97;12612339;23;20018;-51
2021/12/31 18:45:06;;;;;;;0.52;0.50;;;;;;;19.78;49.60;97074.84;12611918;23;20019;-49
2021/12/31 18:50:26;;;;;;;0.60;0.60;;;;;;;19.80;49.41;97059.13;12612006;23;20019;-49
2021/12/31 18:55:45;;;;;;;0.50;0.50;;;;;;;19.83;49.36;97037.66;12612033;23;20015;-49
2021/12/31 19:01:05;;;;;;;0.50;0.50;;;;;;;19.86;49.29;97074.09;12631518;23;20071;-50
2021/12/31 19:06:24;;;;;;;0.57;0.50;;;;;;;19.88;49.32;97028.59;12611759;23;20022;-49
2021/12/31 19:11:43;;;;;;;0.40;0.40;;;;;;;19.90;49.21;97067.72;12631298;23;20024;-49
2021/12/31 19:17:03;;;;;;;0.50;0.50;;;;;;;19.94;49.14;97060.53;12611001;23;20037;-50
2021/12/31 19:22:24;;;;;;;0.63;0.60;;;;;;;19.97;49.22;97082.66;12611467;23;20098;-51
2021/12/31 19:27:43;;;;;;;0.40;0.40;;;;;;;19.99;49.08;97081.22;12631077;23;20069;-49
2021/12/31 19:33:02;;;;;;;0.40;0.40;;;;;;;20.02;49.21;97074.38;12611159;23;20015;-50
2021/12/31 19:38:22;;;;;;;0.47;0.47;;;;;;;20.05;49.12;97076.44;12630892;23;20029;-49
2021/12/31 19:43:42;;;;;;;0.50;0.50;;;;;;;20.08;49.03;97083.91;12610987;23;20014;-50
2021/12/31 19:49:02;;;;;;;0.30;0.30;;;;;;;20.09;48.98;97085.50;12610499;23;20018;-51
2021/12/31 19:54:23;;;;;;;0.43;0.43;;;;;;;20.10;48.97;97081.69;12611039;23;20018;-50
2021/12/31 19:59:43;;;;;;;0.35;0.35;;;;;;;20.12;48.89;97074.03;12611308;23;20022;-49
2021/12/31 20:05:03;;;;;;;0.43;0.43;;;;;;;20.15;48.86;97089.66;12610874;23;20342;-51
2021/12/31 20:10:22;;;;;;;0.47;0.47;;;;;;;20.16;48.81;97088.50;12610871;23;20045;-49
2021/12/31 20:15:42;;;;;;;0.40;0.40;;;;;;;20.16;48.82;97074.97;12610235;23;20486;-50
2021/12/31 20:21:02;;;;;;;0.60;0.60;;;;;;;20.18;48.78;97088.19;12610771;23;20022;-51
2021/12/31 20:26:22;;;;;;;0.43;0.43;;;;;;;20.18;48.75;97090.91;12629982;23;20069;-49
2021/12/31 20:31:41;;;;;;;0.63;0.40;;;;;;;20.19;48.67;97071.66;12630090;23;20014;-52
2021/12/31 20:37:00;;;;;;;0.40;0.40;;;;;;;20.20;48.82;97084.03;12609750;23;20022;-50
2021/12/31 20:42:19;;;;;;;0.50;0.50;;;;;;;20.20;48.69;97081.34;12610311;23;20018;-50
2021/12/31 20:47:40;;;;;;;0.47;0.47;;;;;;;20.19;48.71;97079.75;12610335;23;20022;-49
2021/12/31 20:53:00;;;;;;;0.40;0.40;;;;;;;20.19;48.68;97074.34;12610251;23;20344;-50
2021/12/31 20:58:19;;;;;;;0.50;0.50;;;;;;;20.20;48.66;97089.44;12609022;23;20025;-49
2021/12/31 21:03:39;;;;;;;0.40;0.40;;;;;;;20.21;48.67;97084.84;12609285;23;20094;-51
2021/12/31 21:08:58;;;;;;;0.43;0.43;;;;;;;20.20;48.67;97092.16;12629489;23;20022;-49
2021/12/31 21:14:18;;;;;;;0.40;0.40;;;;;;;20.18;48.68;97107.91;12620841;23;20655;-49
2021/12/31 21:19:38;;;;;;;0.50;0.50;;;;;;;20.19;48.67;97108.72;12667229;23;20078;-50
2021/12/31 21:24:59;;;;;;;0.50;0.50;;;;;;;20.20;48.75;97118.44;12666864;23;20018;-50
2021/12/31 21:30:20;;;;;;;0.50;0.50;;;;;;;20.19;48.67;97123.03;12688999;23;20018;-50
2021/12/31 21:35:40;;;;;;;0.50;0.50;;;;;;;20.20;48.65;97137.34;12689885;23;20052;-49
2021/12/31 21:40:59;;;;;;;0.40;0.40;;;;;;;20.18;48.70;97129.56;12670312;23;20025;-51
2021/12/31 21:46:18;;;;;;;0.55;0.43;;;;;;;20.19;48.77;97124.94;12648317;23;20085;-50
2021/12/31 21:51:37;;;;;;;0.40;0.40;;;;;;;20.18;48.67;97134.19;12670125;23;20018;-51
2021/12/31 21:56:57;;;;;;;2.42;0.50;;;;;;;20.17;48.65;97152.31;12669923;23;20068;-49
2021/12/31 22:02:16;;;;;;;2.08;0.70;;;;;;;20.15;48.66;97157.25;12689544;23;20018;-49
2021/12/31 22:07:36;;;;;;;0.40;0.40;;;;;;;20.15;48.75;97151.84;12671954;23;20017;-49
2021/12/31 22:12:55;;;;;;;0.40;0.30;;;;;;;20.14;48.73;97153.75;12673742;23;20349;-49
2021/12/31 22:18:15;;;;;;;0.40;0.40;;;;;;;20.14;48.73;97169.97;12626204;23;20310;-52
2021/12/31 22:23:34;;;;;;;0.40;0.40;;;;;;;20.12;48.79;97177.59;12612979;23;20034;-49
2021/12/31 22:28:54;;;;;;;0.57;0.57;;;;;;;20.12;48.69;97182.22;12612880;23;20046;-49
2021/12/31 22:34:13;;;;;;;1.55;0.50;;;;;;;20.12;48.65;97174.13;12632242;23;20019;-50
2021/12/31 22:39:33;;;;;;;0.50;0.50;;;;;;;20.11;48.76;97183.34;12612548;23;20022;-50
2021/12/31 22:44:52;;;;;;;0.40;0.40;;;;;;;20.10;48.72;97201.47;12611538;23;20018;-49
2021/12/31 22:50:13;;;;;;;0.55;0.47;;;;;;;20.09;48.71;97196.38;12612092;23;20447;-50
2021/12/31 22:55:33;;;;;;;0.30;0.30;;;;;;;20.08;48.52;97200.22;12611229;23;20021;-50
2021/12/31 23:00:53;;;;;;;0.47;0.47;;;;;;;20.07;48.89;97212.94;12612057;23;20093;-49
2021/12/31 23:06:14;;;;;;;0.40;0.40;;;;;;;20.06;48.81;97221.38;12611815;23;20022;-49
2021/12/31 23:11:40;;;;;;;0.40;0.40;;;;;;;20.05;48.82;97231.41;12631260;23;20018;-49
2021/12/31 23:17:00;;;;;;;0.40;0.40;;;;;;;20.05;48.93;97234.09;12630913;23;20018;-49
2021/12/31 23:22:20;;;;;;;0.45;0.45;;;;;;;20.04;48.74;97240.63;12611206;23;20331;-50
2021/12/31 23:27:48;;;;;;;0.50;0.50;;;;;;;20.02;48.83;97240.13;12631132;23;20014;-49
2021/12/31 23:33:08;;;;;;;0.47;0.47;;;;;;;20.02;48.82;97252.88;12630870;23;20468;-50
2021/12/31 23:38:28;;;;;;;0.50;0.50;;;;;;;20.00;48.82;97255.88;12610630;23;20029;-49
2021/12/31 23:43:55;;;;;;;0.47;0.47;;;;;;;19.99;48.89;97253.50;12611029;23;20015;-50
2021/12/31 23:49:16;;;;;;;0.40;0.40;;;;;;;19.98;48.77;97254.63;12630736;23;20025;-50
2021/12/31 23:54:36;;;;;;;0.40;0.40;;;;;;;19.98;48.89;97254.63;12610721;23;20015;-50
2021/12/31 23:59:56;;;;;;;0.50;0.50;;;;;;;19.95;48.75;97248.72;12610813;23;20025;-50
